Asolare — ZCDI3 — position and weather

sailwx.info

Track history (hours):
 
Tides and Currents Weather Stations Pressure Air Temp Water Temp Dewpoint Dewpoint Depression Visibility Wind Speed Wind Dir Waves Ship Positions

Asolare

Last reported at 2016-Feb-03 12:33 UTC. Time now 2016-Feb-07 03:58 UTC.
Position N 17°00' W 061°46'.

Length 47 m; draft 4.9 m.

Type: Sailing vessel. MMSI: 310413000.

Date/timePositionNaut miles runAvg speedWind from/ knotsBaromVisibWave heightAir tempDewpointWater temp
2016-Feb-03 12:33N 17°00' W 061°46'0 0.0
2016-Feb-03 11:33N 17°00' W 061°46'0 0.0
2016-Feb-03 10:33N 17°00' W 061°46'0 0.0
2016-Feb-03 09:33N 17°00' W 061°46'0 0.0
2016-Feb-03 08:33N 17°00' W 061°46'0 0.0
2016-Feb-03 07:33N 17°00' W 061°46'0 0.0
2016-Feb-03 06:33N 17°00' W 061°46'0 0.0
2016-Feb-03 05:33N 17°00' W 061°46'0 0.0
2016-Feb-03 04:33N 17°00' W 061°46'0 0.0
2016-Feb-03 03:33N 17°00' W 061°46'0 0.0
2016-Feb-03 02:32N 17°00' W 061°46'0 0.0
2016-Feb-03 01:32N 17°00' W 061°46'0 0.0
2016-Feb-03 00:33N 17°00' W 061°46'0 0.0
2016-Feb-02 23:32N 17°00' W 061°46'0 0.0
2016-Feb-02 22:32N 17°00' W 061°46'0 0.0
2016-Feb-02 21:32N 17°00' W 061°46'0 0.0
2016-Feb-02 20:33N 17°00' W 061°46'0 0.0
2016-Feb-02 19:32N 17°00' W 061°46'0 0.0
2016-Feb-02 18:29N 17°00' W 061°46'0 0.0
2016-Feb-02 17:32N 17°00' W 061°46'0 0.0
2016-Feb-02 16:32N 17°00' W 061°46'0 0.0
2016-Feb-02 15:32N 17°00' W 061°46'0 0.0
2016-Feb-02 14:33N 17°00' W 061°46'1 1.0
2016-Feb-02 13:33N 17°00' W 061°47'1 0.5
2016-Feb-02 12:33N 17°01' W 061°47'0 0.0
2016-Feb-02 11:33N 17°01' W 061°47'0 0.0
2016-Feb-02 10:33N 17°01' W 061°47'0 0.0
2016-Feb-02 09:33N 17°01' W 061°47'0 0.0
2016-Feb-02 08:33N 17°01' W 061°47'0 0.0
2016-Feb-02 07:33N 17°01' W 061°47'0 0.0
2016-Feb-02 06:33N 17°01' W 061°47'0 0.0
2016-Feb-02 05:33N 17°01' W 061°47'0 0.0
2016-Feb-02 04:33N 17°01' W 061°47'0 0.0
2016-Feb-02 03:33N 17°01' W 061°47'0 0.0
2016-Feb-02 02:33N 17°01' W 061°47'0 0.0
2016-Feb-02 01:33N 17°01' W 061°47'0 0.0
2016-Feb-02 00:33N 17°01' W 061°47'0 0.0
2016-Feb-01 23:33N 17°01' W 061°47'0 0.0
2016-Feb-01 22:33N 17°01' W 061°47'0 0.0
2016-Feb-01 21:33N 17°01' W 061°47'0 0.0
2016-Feb-01 20:30N 17°01' W 061°47'0 0.0
2016-Feb-01 19:33N 17°01' W 061°47'0 0.0
2016-Feb-01 18:33N 17°01' W 061°47'0 0.0
2016-Feb-01 17:32N 17°01' W 061°47'0 0.0
2016-Feb-01 16:32N 17°01' W 061°47'0 0.0
2016-Feb-01 14:20N 17°01' W 061°47'0 0.0
2016-Feb-01 11:20N 17°01' W 061°47'0 0.0
2016-Feb-01 10:32N 17°01' W 061°47'0 0.0
2016-Feb-01 09:32N 17°01' W 061°47'0 0.0
2016-Feb-01 08:32N 17°01' W 061°47'0 0.0
2016-Feb-01 07:32N 17°01' W 061°47'0 0.0
2016-Feb-01 05:32N 17°01' W 061°47'0 0.0
2016-Feb-01 04:32N 17°01' W 061°47'0 0.0
2016-Feb-01 03:32N 17°01' W 061°47'0 0.0
2016-Feb-01 02:32N 17°01' W 061°47'0 0.0
2016-Feb-01 01:32N 17°01' W 061°47'0 0.0
2016-Feb-01 00:32N 17°01' W 061°47'0 0.0
2016-Jan-31 23:32N 17°01' W 061°47'2 2.2
2016-Jan-31 22:34N 16°60' W 061°49'81 2.0
2016-Jan-30 05:20N 17°54' W 062°52'15 0.4
2016-Jan-28 12:13N 18°02' W 063°06'0 0.0
2016-Jan-28 04:16N 18°02' W 063°06'2 0.0
2016-Jan-26 06:13N 18°04' W 063°06'4 0.5
2016-Jan-25 22:18N 18°05' W 063°10'9 1.6
2016-Jan-25 16:24N 17°57' W 063°16'  
Track history (hours):
 
Tides and Currents Weather Stations Pressure Air Temp Water Temp Dewpoint Dewpoint Depression Visibility Wind Speed Wind Dir Waves Ship Positions

Asolare

Last reported at 2016-Feb-03 12:33 UTC. Time now 2016-Feb-07 03:58 UTC.
Position N 17°00' W 061°46'.

Length 47 m; draft 4.9 m.

Type: Sailing vessel. MMSI: 310413000.

Date/timePositionNaut miles runAvg speedWind from/ knotsBaromVisibWave heightAir tempDewpointWater temp
2016-Feb-03 12:33N 17°00' W 061°46'0 0.0
2016-Feb-03 11:33N 17°00' W 061°46'0 0.0
2016-Feb-03 10:33N 17°00' W 061°46'0 0.0
2016-Feb-03 09:33N 17°00' W 061°46'0 0.0
2016-Feb-03 08:33N 17°00' W 061°46'0 0.0
2016-Feb-03 07:33N 17°00' W 061°46'0 0.0
2016-Feb-03 06:33N 17°00' W 061°46'0 0.0
2016-Feb-03 05:33N 17°00' W 061°46'0 0.0
2016-Feb-03 04:33N 17°00' W 061°46'0 0.0
2016-Feb-03 03:33N 17°00' W 061°46'0 0.0
2016-Feb-03 02:32N 17°00' W 061°46'0 0.0
2016-Feb-03 01:32N 17°00' W 061°46'0 0.0
2016-Feb-03 00:33N 17°00' W 061°46'0 0.0
2016-Feb-02 23:32N 17°00' W 061°46'0 0.0
2016-Feb-02 22:32N 17°00' W 061°46'0 0.0
2016-Feb-02 21:32N 17°00' W 061°46'0 0.0
2016-Feb-02 20:33N 17°00' W 061°46'0 0.0
2016-Feb-02 19:32N 17°00' W 061°46'0 0.0
2016-Feb-02 18:29N 17°00' W 061°46'0 0.0
2016-Feb-02 17:32N 17°00' W 061°46'0 0.0
2016-Feb-02 16:32N 17°00' W 061°46'0 0.0
2016-Feb-02 15:32N 17°00' W 061°46'0 0.0
2016-Feb-02 14:33N 17°00' W 061°46'1 1.0
2016-Feb-02 13:33N 17°00' W 061°47'1 0.5
2016-Feb-02 12:33N 17°01' W 061°47'0 0.0
2016-Feb-02 11:33N 17°01' W 061°47'0 0.0
2016-Feb-02 10:33N 17°01' W 061°47'0 0.0
2016-Feb-02 09:33N 17°01' W 061°47'0 0.0
2016-Feb-02 08:33N 17°01' W 061°47'0 0.0
2016-Feb-02 07:33N 17°01' W 061°47'0 0.0
2016-Feb-02 06:33N 17°01' W 061°47'0 0.0
2016-Feb-02 05:33N 17°01' W 061°47'0 0.0
2016-Feb-02 04:33N 17°01' W 061°47'0 0.0
2016-Feb-02 03:33N 17°01' W 061°47'0 0.0
2016-Feb-02 02:33N 17°01' W 061°47'0 0.0
2016-Feb-02 01:33N 17°01' W 061°47'0 0.0
2016-Feb-02 00:33N 17°01' W 061°47'0 0.0
2016-Feb-01 23:33N 17°01' W 061°47'0 0.0
2016-Feb-01 22:33N 17°01' W 061°47'0 0.0
2016-Feb-01 21:33N 17°01' W 061°47'0 0.0
2016-Feb-01 20:30N 17°01' W 061°47'0 0.0
2016-Feb-01 19:33N 17°01' W 061°47'0 0.0
2016-Feb-01 18:33N 17°01' W 061°47'0 0.0
2016-Feb-01 17:32N 17°01' W 061°47'0 0.0
2016-Feb-01 16:32N 17°01' W 061°47'0 0.0
2016-Feb-01 14:20N 17°01' W 061°47'0 0.0
2016-Feb-01 11:20N 17°01' W 061°47'0 0.0
2016-Feb-01 10:32N 17°01' W 061°47'0 0.0
2016-Feb-01 09:32N 17°01' W 061°47'0 0.0
2016-Feb-01 08:32N 17°01' W 061°47'0 0.0
2016-Feb-01 07:32N 17°01' W 061°47'0 0.0
2016-Feb-01 05:32N 17°01' W 061°47'0 0.0
2016-Feb-01 04:32N 17°01' W 061°47'0 0.0
2016-Feb-01 03:32N 17°01' W 061°47'0 0.0
2016-Feb-01 02:32N 17°01' W 061°47'0 0.0
2016-Feb-01 01:32N 17°01' W 061°47'0 0.0
2016-Feb-01 00:32N 17°01' W 061°47'0 0.0
2016-Jan-31 23:32N 17°01' W 061°47'2 2.2
2016-Jan-31 22:34N 16°60' W 061°49'81 2.0
2016-Jan-30 05:20N 17°54' W 062°52'15 0.4
2016-Jan-28 12:13N 18°02' W 063°06'0 0.0
2016-Jan-28 04:16N 18°02' W 063°06'2 0.0
2016-Jan-26 06:13N 18°04' W 063°06'4 0.5
2016-Jan-25 22:18N 18°05' W 063°10'9 1.6
2016-Jan-25 16:24N 17°57' W 063°16'  

Dump ship's entire track history